Time;durP1;ratioP1;P1;durP2;ratioP2;P2;SDS_P1;SDS_P2;PMS_P1;PMS_P2;Temp;Humidity;BMP_temperature;BMP_pressure;BME280_temperature;BME280_humidity;BME280_pressure;Samples;Min_cycle;Max_cycle;Signal;HPM_P1;HPM_P2
2023/08/28 00:00:18;;;;;;;;;;;;;;;23.94;nan;100849.78;5060392;28;19977;-82
2023/08/28 00:02:43;;;;;;;;;;;;;;;23.89;nan;100857.41;5064585;28;19916;-82
2023/08/28 00:05:09;;;;;;;;;;;;;;;23.84;nan;100852.13;5061607;28;20336;-82
2023/08/28 00:07:34;;;;;;;;;;;;;;;23.81;nan;100857.13;5059024;28;20327;-82
2023/08/28 00:10:00;;;;;;;;;;;;;;;23.79;nan;100856.66;5052450;28;20337;-82
2023/08/28 00:12:25;;;;;;;;;;;;;;;23.76;nan;100860.06;5055703;28;20015;-82
2023/08/28 00:14:51;;;;;;;;;;;;;;;23.77;nan;100858.94;5063549;28;19999;-82
2023/08/28 00:17:17;;;;;;;;;;;;;;;23.79;nan;100864.06;5057122;28;20385;-82
2023/08/28 00:19:43;;;;;;;;;;;;;;;23.83;nan;100864.19;5056952;28;19924;-82
2023/08/28 00:22:08;;;;;;;;;;;;;;;23.80;nan;100861.00;5057058;28;19916;-82
2023/08/28 00:24:34;;;;;;;;;;;;;;;23.83;nan;100869.69;5059349;28;19920;-82
2023/08/28 00:26:59;;;;;;;;;;;;;;;23.81;nan;100872.75;5061060;28;19931;-82
2023/08/28 00:29:24;;;;;;;;;;;;;;;23.82;nan;100874.34;5058654;28;19924;-82
2023/08/28 00:31:49;;;;;;;;;;;;;;;23.85;nan;100870.94;5061802;28;20372;-83
2023/08/28 00:34:15;;;;;;;;;;;;;;;23.86;nan;100869.00;5056600;28;19970;-82
2023/08/28 00:36:40;;;;;;;;;;;;;;;23.90;nan;100878.16;5053432;28;19946;-82
2023/08/28 00:39:05;;;;;;;;;;;;;;;23.88;nan;100874.94;5057692;28;19928;-83
2023/08/28 00:41:31;;;;;;;;;;;;;;;23.87;nan;100884.28;5057086;28;19952;-82
2023/08/28 00:43:56;;;;;;;;;;;;;;;23.86;nan;100885.41;5061253;28;20395;-83
2023/08/28 00:46:21;;;;;;;;;;;;;;;23.85;nan;100895.56;5060140;28;19927;-82
2023/08/28 00:48:47;;;;;;;;;;;;;;;23.84;nan;100890.44;5057234;28;20134;-82
2023/08/28 00:51:13;;;;;;;;;;;;;;;23.83;nan;100892.38;5057070;28;20295;-83
2023/08/28 00:53:38;;;;;;;;;;;;;;;23.83;nan;100897.84;5060432;28;19924;-83
2023/08/28 00:56:03;;;;;;;;;;;;;;;23.85;nan;100901.03;5059580;28;19933;-82
2023/08/28 00:58:29;;;;;;;;;;;;;;;23.86;nan;100902.63;5059212;28;20011;-82
2023/08/28 01:00:54;;;;;;;;;;;;;;;23.86;nan;100907.31;5057712;28;19920;-83
2023/08/28 01:03:19;;;;;;;;;;;;;;;23.84;nan;100912.31;5059976;28;20445;-82
2023/08/28 01:06:11;;;;;;;;;;;;;;;23.80;nan;100906.72;5058782;28;20430;-83
2023/08/28 01:08:45;;;;;;;;;;;;;;;23.71;nan;100901.31;5054225;28;19921;-82
2023/08/28 01:11:14;;;;;;;;;;;;;;;23.64;nan;100909.22;5060208;28;20384;-83
2023/08/28 01:13:50;;;;;;;;;;;;;;;23.63;nan;100907.63;5063459;28;20269;-83
2023/08/28 01:16:16;;;;;;;;;;;;;;;23.64;nan;100911.16;5061231;28;19928;-83
2023/08/28 01:18:41;;;;;;;;;;;;;;;23.63;nan;100904.91;5061751;28;20098;-83
2023/08/28 01:21:07;;;;;;;;;;;;;;;23.59;nan;100908.63;5056798;28;19924;-83
2023/08/28 01:23:35;;;;;;;;;;;;;;;23.55;nan;100921.34;5057160;28;20273;-82
2023/08/28 01:26:01;;;;;;;;;;;;;;;23.49;nan;100917.97;5056793;28;19931;-82
2023/08/28 01:28:27;;;;;;;;;;;;;;;23.48;nan;100924.59;5052215;28;19920;-83
2023/08/28 01:30:53;;;;;;;;;;;;;;;23.47;nan;100934.72;5052020;28;19924;-83
2023/08/28 01:33:19;;;;;;;;;;;;;;;23.43;nan;100933.78;5060159;28;19917;-82
2023/08/28 01:35:46;;;;;;;;;;;;;;;23.41;nan;100940.72;5059254;28;20194;-82
2023/08/28 01:38:41;;;;;;;;;;;;;;;23.41;nan;100947.00;5066534;28;19917;-82
2023/08/28 01:41:07;;;;;;;;;;;;;;;23.34;nan;100943.97;5048947;28;19920;-82
2023/08/28 01:43:42;;;;;;;;;;;;;;;23.27;nan;100946.41;5062535;28;19920;-83
2023/08/28 01:46:08;;;;;;;;;;;;;;;23.19;nan;100950.78;5060050;28;19920;-82
2023/08/28 01:48:35;;;;;;;;;;;;;;;23.16;nan;100953.34;5060894;28;20448;-82
2023/08/28 01:51:00;;;;;;;;;;;;;;;23.10;nan;100955.47;5064832;28;19962;-82
2023/08/28 01:53:26;;;;;;;;;;;;;;;23.03;nan;100951.66;5060980;28;19920;-82
2023/08/28 01:56:04;;;;;;;;;;;;;;;22.91;nan;100955.84;5059394;28;19924;-82
2023/08/28 01:58:31;;;;;;;;;;;;;;;22.87;nan;100948.66;5061092;28;19921;-82
2023/08/28 02:00:56;;;;;;;;;;;;;;;22.84;nan;100955.56;5058013;28;19917;-82
2023/08/28 02:03:21;;;;;;;;;;;;;;;22.80;nan;100961.97;5061641;28;19927;-82
2023/08/28 02:05:47;;;;;;;;;;;;;;;22.75;nan;100962.13;5059198;28;20075;-82
2023/08/28 02:08:12;;;;;;;;;;;;;;;22.73;nan;100965.19;5055011;28;19924;-82
2023/08/28 02:10:37;;;;;;;;;;;;;;;22.73;nan;100965.19;5053132;28;20428;-82
2023/08/28 02:13:03;;;;;;;;;;;;;;;22.74;nan;100964.06;5060392;28;20038;-82
2023/08/28 02:15:29;;;;;;;;;;;;;;;22.72;nan;100966.31;5061690;28;19916;-82
2023/08/28 02:17:54;;;;;;;;;;;;;;;22.66;nan;100964.91;5062471;28;19969;-82
2023/08/28 02:20:19;;;;;;;;;;;;;;;22.61;nan;100968.56;5058643;28;19924;-82
2023/08/28 02:22:44;;;;;;;;;;;;;;;22.59;nan;100962.63;5060402;28;20400;-82
2023/08/28 02:25:10;;;;;;;;;;;;;;;22.54;nan;100962.00;5058525;28;19920;-82
2023/08/28 02:27:35;;;;;;;;;;;;;;;22.47;nan;100959.78;5059165;28;19917;-82
2023/08/28 02:30:00;;;;;;;;;;;;;;;22.45;nan;100961.22;5060582;28;20403;-82
2023/08/28 02:32:26;;;;;;;;;;;;;;;22.40;nan;100966.84;5058898;28;19928;-82
2023/08/28 02:34:51;;;;;;;;;;;;;;;22.24;nan;100959.13;5061021;28;19931;-82
2023/08/28 02:37:16;;;;;;;;;;;;;;;22.09;nan;100967.81;5058999;28;19929;-82
2023/08/28 02:39:42;;;;;;;;;;;;;;;22.10;nan;100969.41;5060801;28;19917;-83
2023/08/28 02:42:07;;;;;;;;;;;;;;;22.14;nan;100964.13;5061259;28;19916;-82
2023/08/28 02:44:32;;;;;;;;;;;;;;;22.15;nan;100963.00;5060198;28;20336;-82
2023/08/28 02:46:57;;;;;;;;;;;;;;;22.16;nan;100962.69;5061320;28;19920;-82
2023/08/28 02:49:23;;;;;;;;;;;;;;;22.17;nan;100960.75;5057849;28;19924;-82
2023/08/28 02:51:48;;;;;;;;;;;;;;;22.19;nan;100966.69;5059702;28;20463;-82
2023/08/28 02:54:13;;;;;;;;;;;;;;;22.15;nan;100965.72;5060524;28;19928;-82
2023/08/28 02:56:39;;;;;;;;;;;;;;;22.10;nan;100963.16;5058100;28;20456;-82
2023/08/28 02:59:05;;;;;;;;;;;;;;;22.06;nan;100968.44;5057712;28;20155;-82
2023/08/28 03:01:34;;;;;;;;;;;;;;;22.01;nan;100969.38;5055293;28;19928;-82
2023/08/28 03:04:00;;;;;;;;;;;;;;;22.00;nan;100975.94;5059751;28;20439;-82
2023/08/28 03:06:25;;;;;;;;;;;;;;;21.98;nan;100982.84;5060334;28;19955;-82
2023/08/28 03:08:51;;;;;;;;;;;;;;;21.95;nan;100983.50;5062708;28;20036;-81
2023/08/28 03:11:16;;;;;;;;;;;;;;;21.93;nan;100974.81;5058294;28;20339;-82
2023/08/28 03:13:42;;;;;;;;;;;;;;;21.89;nan;100980.09;5062438;28;19923;-82
2023/08/28 03:16:08;;;;;;;;;;;;;;;21.88;nan;100988.59;5056674;28;20339;-82
2023/08/28 03:18:33;;;;;;;;;;;;;;;21.86;nan;100991.63;5061773;28;19927;-82
2023/08/28 03:20:58;;;;;;;;;;;;;;;21.84;nan;100999.34;5061183;28;19917;-82
2023/08/28 03:23:24;;;;;;;;;;;;;;;21.82;nan;100998.84;5060121;28;19924;-82
2023/08/28 03:25:50;;;;;;;;;;;;;;;21.78;nan;101011.53;5058330;28;19917;-82
2023/08/28 03:28:15;;;;;;;;;;;;;;;21.72;nan;101012.78;5063647;28;20195;-82
2023/08/28 03:30:40;;;;;;;;;;;;;;;21.66;nan;101027.69;5063948;28;19975;-82
2023/08/28 03:33:07;;;;;;;;;;;;;;;21.61;nan;101030.56;5054191;28;19920;-82
2023/08/28 03:35:33;;;;;;;;;;;;;;;21.57;nan;101029.59;5063843;28;19994;-82
2023/08/28 03:37:58;;;;;;;;;;;;;;;21.54;nan;101025.53;5058824;28;19924;-82
2023/08/28 03:40:24;;;;;;;;;;;;;;;21.47;nan;101029.84;5058789;28;19920;-82
2023/08/28 03:42:49;;;;;;;;;;;;;;;21.41;nan;101040.91;5056125;28;19962;-82
2023/08/28 03:45:14;;;;;;;;;;;;;;;21.37;nan;101037.19;5063720;28;19939;-82
2023/08/28 03:47:39;;;;;;;;;;;;;;;21.29;nan;101026.25;5060723;28;19955;-82
2023/08/28 03:50:05;;;;;;;;;;;;;;;21.26;nan;101027.69;5061012;28;20006;-82
2023/08/28 03:52:30;;;;;;;;;;;;;;;21.23;nan;101024.75;5060174;28;20221;-82
2023/08/28 03:54:56;;;;;;;;;;;;;;;21.15;nan;101039.91;5060925;28;20357;-82
2023/08/28 03:57:21;;;;;;;;;;;;;;;21.07;nan;101041.50;5063163;28;19970;-82
2023/08/28 03:59:46;;;;;;;;;;;;;;;21.00;nan;101034.84;5060302;28;19921;-82
2023/08/28 04:02:11;;;;;;;;;;;;;;;20.95;nan;101038.50;5062165;28;19959;-82
2023/08/28 04:04:37;;;;;;;;;;;;;;;20.88;nan;101043.59;5055847;28;19966;-82
2023/08/28 04:07:03;;;;;;;;;;;;;;;20.80;nan;101041.59;5056367;28;20327;-82
2023/08/28 04:09:29;;;;;;;;;;;;;;;20.75;nan;101055.34;5056952;28;19936;-82
2023/08/28 04:11:54;;;;;;;;;;;;;;;20.72;nan;101048.63;5058826;28;19924;-82
2023/08/28 04:14:20;;;;;;;;;;;;;;;20.72;nan;101053.25;5058687;28;20355;-82
2023/08/28 04:16:45;;;;;;;;;;;;;;;20.71;nan;101054.38;5063821;28;20006;-82
2023/08/28 04:19:10;;;;;;;;;;;;;;;20.67;nan;101054.19;5062305;28;19921;-82
2023/08/28 04:21:36;;;;;;;;;;;;;;;20.64;nan;101054.78;5058105;28;20350;-82
2023/08/28 04:24:01;;;;;;;;;;;;;;;20.61;nan;101049.94;5063886;28;19956;-82
2023/08/28 04:26:26;;;;;;;;;;;;;;;20.58;nan;101052.50;5059107;28;20364;-82
2023/08/28 04:28:52;;;;;;;;;;;;;;;20.57;nan;101048.97;5057679;28;19928;-82
2023/08/28 04:31:19;;;;;;;;;;;;;;;20.55;nan;101045.75;5059612;28;20303;-82
2023/08/28 04:33:44;;;;;;;;;;;;;;;20.54;nan;101044.16;5060106;28;19950;-82
2023/08/28 04:36:09;;;;;;;;;;;;;;;20.53;nan;101056.16;5057704;28;19921;-82
2023/08/28 04:38:34;;;;;;;;;;;;;;;20.53;nan;101045.25;5060994;28;19999;-82
2023/08/28 04:41:00;;;;;;;;;;;;;;;20.53;nan;101042.53;5061926;28;20203;-82
2023/08/28 04:43:25;;;;;;;;;;;;;;;20.54;nan;101038.69;5058926;28;19917;-82
2023/08/28 04:45:50;;;;;;;;;;;;;;;20.56;nan;101033.75;5058282;28;19924;-82
2023/08/28 04:48:16;;;;;;;;;;;;;;;20.57;nan;101029.91;5059587;28;20403;-82
2023/08/28 04:50:41;;;;;;;;;;;;;;;20.57;nan;101027.19;5058736;28;19916;-82
2023/08/28 04:53:07;;;;;;;;;;;;;;;20.59;nan;101035.03;5057558;28;20369;-82
2023/08/28 04:55:32;;;;;;;;;;;;;;;20.61;nan;101024.66;5054596;28;19963;-82
2023/08/28 04:57:57;;;;;;;;;;;;;;;20.63;nan;101019.69;5058040;28;20485;-82
2023/08/28 05:00:23;;;;;;;;;;;;;;;20.65;nan;101023.75;5057605;28;19932;-82
2023/08/28 05:02:48;;;;;;;;;;;;;;;20.67;nan;101026.97;5057992;28;19916;-82
2023/08/28 05:05:13;;;;;;;;;;;;;;;20.73;nan;101033.88;5056282;28;19920;-82
2023/08/28 05:07:38;;;;;;;;;;;;;;;20.75;nan;101028.94;5056454;28;19944;-82
2023/08/28 05:10:04;;;;;;;;;;;;;;;20.77;nan;101031.34;5061308;28;20051;-82
2023/08/28 05:12:29;;;;;;;;;;;;;;;20.77;nan;101029.41;5057535;28;20430;-82
2023/08/28 05:14:55;;;;;;;;;;;;;;;20.80;nan;101030.72;5062346;28;19928;-82
2023/08/28 05:17:20;;;;;;;;;;;;;;;20.85;nan;101021.63;5060976;28;20073;-82
2023/08/28 05:19:45;;;;;;;;;;;;;;;20.91;nan;101028.56;5057872;28;19921;-82
2023/08/28 05:22:11;;;;;;;;;;;;;;;20.88;nan;101016.38;5062430;28;19925;-82
2023/08/28 05:24:38;;;;;;;;;;;;;;;20.89;nan;101022.63;5059954;28;20272;-82
2023/08/28 05:27:03;;;;;;;;;;;;;;;20.92;nan;101022.00;5056748;28;19923;-82
2023/08/28 05:29:28;;;;;;;;;;;;;;;20.95;nan;101032.25;5058566;28;19924;-82
2023/08/28 05:31:54;;;;;;;;;;;;;;;20.96;nan;101039.31;5058397;28;20334;-82
2023/08/28 05:34:19;;;;;;;;;;;;;;;21.01;nan;101033.75;5056350;28;19917;-82
2023/08/28 05:36:44;;;;;;;;;;;;;;;21.08;nan;101032.19;5064575;28;19920;-82
2023/08/28 05:39:09;;;;;;;;;;;;;;;21.12;nan;101035.91;5063784;28;20435;-82
2023/08/28 05:41:35;;;;;;;;;;;;;;;21.11;nan;101030.75;5057376;28;20039;-82
2023/08/28 05:44:00;;;;;;;;;;;;;;;21.12;nan;101033.19;5061820;28;20095;-82
2023/08/28 05:46:25;;;;;;;;;;;;;;;21.19;nan;101031.94;5062785;28;20503;-83
2023/08/28 05:48:51;;;;;;;;;;;;;;;21.21;nan;101024.25;5054571;28;19947;-82
2023/08/28 05:51:17;;;;;;;;;;;;;;;21.26;nan;101038.56;5058880;28;20483;-82
2023/08/28 05:53:42;;;;;;;;;;;;;;;21.27;nan;101028.47;5061659;28;19924;-82
2023/08/28 05:56:07;;;;;;;;;;;;;;;21.31;nan;101026.72;5058331;28;19924;-82
2023/08/28 05:58:33;;;;;;;;;;;;;;;21.33;nan;101032.66;5061627;28;20183;-82
2023/08/28 06:00:58;;;;;;;;;;;;;;;21.35;nan;101031.25;5055465;28;20001;-82
2023/08/28 06:03:23;;;;;;;;;;;;;;;21.38;nan;101027.91;5060766;28;20526;-82
2023/08/28 06:05:48;;;;;;;;;;;;;;;21.35;nan;101030.44;5062224;28;19917;-82
2023/08/28 06:08:15;;;;;;;;;;;;;;;21.40;nan;101027.59;5060494;28;19943;-82
2023/08/28 06:10:42;;;;;;;;;;;;;;;21.44;nan;101031.28;5063110;28;19916;-82
2023/08/28 06:13:07;;;;;;;;;;;;;;;21.52;nan;101035.16;5060481;28;19932;-82
2023/08/28 06:15:33;;;;;;;;;;;;;;;21.51;nan;101039.00;5055770;28;20008;-82
2023/08/28 06:17:58;;;;;;;;;;;;;;;21.57;nan;101032.31;5060943;28;19923;-82
2023/08/28 06:20:23;;;;;;;;;;;;;;;21.62;nan;101032.16;5054351;28;20452;-82
2023/08/28 06:22:49;;;;;;;;;;;;;;;21.64;nan;101022.56;5058970;28;19916;-82
2023/08/28 06:25:14;;;;;;;;;;;;;;;21.66;nan;101035.88;5058130;28;20404;-81
2023/08/28 06:27:39;;;;;;;;;;;;;;;21.74;nan;101037.03;5059878;28;20465;-82
2023/08/28 06:30:05;;;;;;;;;;;;;;;21.79;nan;101040.41;5064149;28;20728;-82
2023/08/28 06:32:31;;;;;;;;;;;;;;;21.78;nan;101038.81;5060574;28;19927;-82
2023/08/28 06:34:57;;;;;;;;;;;;;;;21.83;nan;101041.38;5057075;28;19917;-82
2023/08/28 06:37:24;;;;;;;;;;;;;;;21.92;nan;101050.41;5059143;28;20023;-82
2023/08/28 06:39:49;;;;;;;;;;;;;;;22.10;nan;101045.03;5058687;28;20022;-82
2023/08/28 06:42:15;;;;;;;;;;;;;;;22.21;nan;101040.84;5059511;28;20396;-82
2023/08/28 06:44:41;;;;;;;;;;;;;;;22.23;nan;101054.97;5057522;28;20394;-82
2023/08/28 06:47:06;;;;;;;;;;;;;;;22.28;nan;101057.56;5057754;28;20020;-82
2023/08/28 06:49:31;;;;;;;;;;;;;;;22.39;nan;101058.84;5059756;28;20308;-82
2023/08/28 06:51:56;;;;;;;;;;;;;;;22.50;nan;101065.63;5058478;28;19917;-81
2023/08/28 06:54:22;;;;;;;;;;;;;;;22.51;nan;101069.94;5052600;28;19925;-81
2023/08/28 06:56:47;;;;;;;;;;;;;;;22.53;nan;101061.44;5055074;28;20440;-82
2023/08/28 06:59:12;;;;;;;;;;;;;;;22.52;nan;101055.19;5058255;28;19951;-81
2023/08/28 07:01:38;;;;;;;;;;;;;;;22.60;nan;101050.81;5061607;28;19920;-82
2023/08/28 07:04:04;;;;;;;;;;;;;;;22.70;nan;101053.25;5057644;28;19917;-82
2023/08/28 07:06:30;;;;;;;;;;;;;;;22.83;nan;101052.31;5058469;28;19931;-81
2023/08/28 07:08:55;;;;;;;;;;;;;;;22.87;nan;101052.47;5059440;28;20104;-82
2023/08/28 07:11:20;;;;;;;;;;;;;;;22.91;nan;101058.88;5055414;28;19966;-82
2023/08/28 07:13:46;;;;;;;;;;;;;;;22.96;nan;101063.38;5060028;28;19923;-82
2023/08/28 07:16:11;;;;;;;;;;;;;;;23.02;nan;101070.28;5054772;28;20218;-81
2023/08/28 07:18:36;;;;;;;;;;;;;;;23.05;nan;101064.16;5054797;28;19947;-81
2023/08/28 07:21:02;;;;;;;;;;;;;;;23.15;nan;101059.16;5057499;28;19962;-80
2023/08/28 07:23:27;;;;;;;;;;;;;;;23.23;nan;101064.94;5058297;28;19971;-82
2023/08/28 07:25:53;;;;;;;;;;;;;;;23.25;nan;101068.16;5055870;28;20013;-82
2023/08/28 07:28:19;;;;;;;;;;;;;;;23.31;nan;101072.31;5059742;28;20373;-82
2023/08/28 07:30:44;;;;;;;;;;;;;;;23.33;nan;101079.03;5051522;28;19923;-80
2023/08/28 07:33:10;;;;;;;;;;;;;;;23.27;nan;101079.56;5057026;28;19916;-81
2023/08/28 07:35:36;;;;;;;;;;;;;;;23.29;nan;101074.56;5053412;28;19916;-81
2023/08/28 07:38:05;;;;;;;;;;;;;;;23.35;nan;101073.28;5060059;28;19932;-82
2023/08/28 07:40:30;;;;;;;;;;;;;;;23.36;nan;101080.34;5059228;28;19960;-82
2023/08/28 07:42:56;;;;;;;;;;;;;;;23.42;nan;101079.03;5058762;28;19971;-82
2023/08/28 07:45:21;;;;;;;;;;;;;;;23.44;nan;101085.78;5063752;28;19959;-81
2023/08/28 07:47:46;;;;;;;;;;;;;;;23.49;nan;101096.53;5058277;28;19923;-80
2023/08/28 07:50:11;;;;;;;;;;;;;;;23.53;nan;101080.31;5060715;28;19920;-80
2023/08/28 07:52:37;;;;;;;;;;;;;;;23.63;nan;101099.09;5058166;28;20028;-80
2023/08/28 07:55:02;;;;;;;;;;;;;;;23.72;nan;101090.88;5058196;28;20295;-81
2023/08/28 07:57:28;;;;;;;;;;;;;;;23.87;nan;101092.25;5061989;28;19921;-80
2023/08/28 07:59:53;;;;;;;;;;;;;;;24.00;nan;101100.22;5062794;28;20447;-81
2023/08/28 08:02:18;;;;;;;;;;;;;;;24.12;nan;101088.59;5060864;28;19917;-80
2023/08/28 08:04:43;;;;;;;;;;;;;;;24.28;nan;101091.56;5060289;28;20015;-81
2023/08/28 08:07:09;;;;;;;;;;;;;;;24.37;nan;101098.59;5056287;28;19924;-82
2023/08/28 08:09:34;;;;;;;;;;;;;;;24.44;nan;101094.53;5055111;28;20003;-82
2023/08/28 08:12:01;;;;;;;;;;;;;;;24.44;nan;101091.81;5061267;28;19920;-81
2023/08/28 08:14:26;;;;;;;;;;;;;;;24.40;nan;101097.91;5057299;28;20055;-82
2023/08/28 08:16:52;;;;;;;;;;;;;;;24.48;nan;101092.72;5055866;28;19966;-82
2023/08/28 08:19:17;;;;;;;;;;;;;;;24.70;nan;101086.91;5056500;28;19916;-81
2023/08/28 08:21:42;;;;;;;;;;;;;;;24.91;nan;101084.16;5057417;28;20380;-82
2023/08/28 08:24:08;;;;;;;;;;;;;;;24.97;nan;101088.31;5057583;28;19974;-81
2023/08/28 08:26:34;;;;;;;;;;;;;;;24.98;nan;101085.22;5054835;28;19920;-81
2023/08/28 08:28:59;;;;;;;;;;;;;;;25.14;nan;101084.63;5055242;28;20196;-82
2023/08/28 08:31:24;;;;;;;;;;;;;;;25.28;nan;101083.16;5053783;28;20006;-82
2023/08/28 08:33:50;;;;;;;;;;;;;;;25.42;nan;101074.63;5055623;28;20307;-81
2023/08/28 08:36:15;;;;;;;;;;;;;;;25.51;nan;101091.78;5054910;28;20728;-82
2023/08/28 08:38:41;;;;;;;;;;;;;;;25.55;nan;101089.16;5058682;28;19948;-81
2023/08/28 08:41:08;;;;;;;;;;;;;;;25.63;nan;101088.25;5055621;28;20323;-82
2023/08/28 08:43:33;;;;;;;;;;;;;;;25.66;nan;101086.75;5056053;28;20311;-81
2023/08/28 08:46:00;;;;;;;;;;;;;;;25.59;nan;101092.81;5064613;28;19917;-82
2023/08/28 08:48:27;;;;;;;;;;;;;;;25.55;nan;101087.22;5065569;28;19927;-82
2023/08/28 08:50:55;;;;;;;;;;;;;;;25.42;nan;101082.84;5066755;28;19923;-81
2023/08/28 08:53:29;;;;;;;;;;;;;;;25.30;nan;101075.38;5065268;28;19924;-82
2023/08/28 08:55:57;;;;;;;;;;;;;;;25.26;nan;101065.44;5067573;28;19932;-82
2023/08/28 08:58:23;;;;;;;;;;;;;;;25.30;nan;101077.31;5062931;28;19920;-82
2023/08/28 09:00:49;;;;;;;;;;;;;;;25.34;nan;101063.75;5062236;28;20003;-82
2023/08/28 09:03:16;;;;;;;;;;;;;;;25.37;nan;101052.91;5059403;28;20019;-82
2023/08/28 09:05:42;;;;;;;;;;;;;;;25.37;nan;101049.34;5062953;28;19920;-82
2023/08/28 09:08:07;;;;;;;;;;;;;;;25.43;nan;101054.28;5057671;28;19916;-82
2023/08/28 09:10:33;;;;;;;;;;;;;;;25.55;nan;101048.00;5059633;28;20047;-82
2023/08/28 09:12:58;;;;;;;;;;;;;;;25.77;nan;101055.00;5059600;28;20007;-80
2023/08/28 09:15:24;;;;;;;;;;;;;;;25.89;nan;101046.78;5066260;28;19921;-82
2023/08/28 09:17:49;;;;;;;;;;;;;;;26.07;nan;101056.38;5060020;28;19928;-82
2023/08/28 09:20:18;;;;;;;;;;;;;;;26.28;nan;101071.91;5059625;28;19921;-82
2023/08/28 09:22:45;;;;;;;;;;;;;;;26.44;nan;101062.63;5056440;28;19917;-80
2023/08/28 09:25:10;;;;;;;;;;;;;;;26.44;nan;101067.31;5061780;28;19968;-82
2023/08/28 09:27:41;;;;;;;;;;;;;;;26.38;nan;101065.94;5056603;28;20340;-81
2023/08/28 09:30:07;;;;;;;;;;;;;;;26.53;nan;101064.41;5062504;28;19921;-82
2023/08/28 09:32:32;;;;;;;;;;;;;;;26.53;nan;101061.69;5063486;28;19924;-82
2023/08/28 09:34:57;;;;;;;;;;;;;;;26.47;nan;101066.63;5057364;28;19921;-82
2023/08/28 09:37:23;;;;;;;;;;;;;;;26.37;nan;101065.16;5059206;28;20408;-82
2023/08/28 09:39:56;;;;;;;;;;;;;;;26.29;nan;101065.25;5067101;28;20274;-82
2023/08/28 09:42:24;;;;;;;;;;;;;;;26.23;nan;101070.22;5060670;28;20153;-82
2023/08/28 09:44:50;;;;;;;;;;;;;;;26.13;nan;101079.69;5068560;28;19916;-82
2023/08/28 09:47:27;;;;;;;;;;;;;;;26.05;nan;101080.63;5062061;28;19923;-82
2023/08/28 09:49:53;;;;;;;;;;;;;;;26.04;nan;101083.72;5067542;28;20497;-82
2023/08/28 09:52:28;;;;;;;;;;;;;;;25.99;nan;101090.22;5062736;28;20007;-82
2023/08/28 09:55:07;;;;;;;;;;;;;;;25.88;nan;101092.66;5062870;28;20023;-82
2023/08/28 09:57:32;;;;;;;;;;;;;;;25.85;nan;101100.75;5060444;28;19981;-82
2023/08/28 09:59:58;;;;;;;;;;;;;;;25.73;nan;101098.00;5058362;28;19916;-82
2023/08/28 10:02:24;;;;;;;;;;;;;;;25.74;nan;101096.88;5057111;28;20510;-82
2023/08/28 10:04:51;;;;;;;;;;;;;;;25.85;nan;101100.75;5063675;28;19916;-82
2023/08/28 10:07:21;;;;;;;;;;;;;;;25.90;nan;101103.28;5059654;28;20304;-82
2023/08/28 10:09:46;;;;;;;;;;;;;;;25.97;nan;101095.28;5055596;28;19920;-82
2023/08/28 10:12:12;;;;;;;;;;;;;;;26.08;nan;101107.41;5051980;28;20338;-82
2023/08/28 10:14:39;;;;;;;;;;;;;;;26.15;nan;101099.38;5055445;28;19963;-82
2023/08/28 10:17:05;;;;;;;;;;;;;;;26.25;nan;101098.13;5055258;28;19935;-82
2023/08/28 10:19:30;;;;;;;;;;;;;;;26.22;nan;101098.81;5053155;28;19921;-81
2023/08/28 10:21:56;;;;;;;;;;;;;;;26.15;nan;101104.06;5052528;28;19917;-82
2023/08/28 10:24:21;;;;;;;;;;;;;;;26.10;nan;101096.06;5047831;28;21718;-81
2023/08/28 10:26:47;;;;;;;;;;;;;;;26.18;nan;101101.44;5049585;28;19974;-81
2023/08/28 10:29:14;;;;;;;;;;;;;;;26.24;nan;101095.72;5054000;28;20181;-81
2023/08/28 10:31:41;;;;;;;;;;;;;;;26.28;nan;101107.63;5058889;28;19955;-82
2023/08/28 10:34:07;;;;;;;;;;;;;;;26.25;nan;101100.06;5054094;28;19928;-82
2023/08/28 10:36:33;;;;;;;;;;;;;;;26.16;nan;101091.94;5056607;28;19986;-82
2023/08/28 10:39:00;;;;;;;;;;;;;;;26.09;nan;101095.28;5051423;28;20415;-82
2023/08/28 10:41:26;;;;;;;;;;;;;;;26.01;nan;101106.34;5053146;28;19947;-82
2023/08/28 10:43:52;;;;;;;;;;;;;;;26.05;nan;101099.84;5052881;28;19933;-82
2023/08/28 10:46:19;;;;;;;;;;;;;;;26.10;nan;101102.38;5054935;28;20197;-82
2023/08/28 10:48:45;;;;;;;;;;;;;;;26.18;nan;101103.38;5061552;28;19962;-82
2023/08/28 10:51:11;;;;;;;;;;;;;;;26.31;nan;101101.41;5058187;28;20019;-82
2023/08/28 10:53:36;;;;;;;;;;;;;;;26.46;nan;101095.25;5061013;28;20354;-82
2023/08/28 10:56:02;;;;;;;;;;;;;;;26.61;nan;101080.00;5055622;28;19927;-82
2023/08/28 10:58:31;;;;;;;;;;;;;;;26.75;nan;101074.88;5057061;28;19970;-82
2023/08/28 11:01:15;;;;;;;;;;;;;;;26.86;nan;101075.19;5058912;28;19920;-82
2023/08/28 11:03:57;;;;;;;;;;;;;;;26.96;nan;101082.94;5070989;28;19931;-82
2023/08/28 11:06:42;;;;;;;;;;;;;;;26.96;nan;101083.75;5059030;28;19971;-82
2023/08/28 11:09:29;;;;;;;;;;;;;;;27.03;nan;101081.22;5055573;28;20385;-82
2023/08/28 11:11:57;;;;;;;;;;;;;;;27.06;nan;101074.19;5068885;28;19928;-82
2023/08/28 11:14:23;;;;;;;;;;;;;;;27.12;nan;101077.50;5060486;28;19932;-82
2023/08/28 11:16:48;;;;;;;;;;;;;;;27.15;nan;101077.59;5057165;28;19932;-82
2023/08/28 11:19:14;;;;;;;;;;;;;;;27.19;nan;101092.25;5062857;28;19920;-81
2023/08/28 11:21:40;;;;;;;;;;;;;;;27.21;nan;101080.88;5059890;28;20549;-82
2023/08/28 11:24:23;;;;;;;;;;;;;;;27.18;nan;101082.41;5056567;28;19947;-82
2023/08/28 11:26:49;;;;;;;;;;;;;;;27.10;nan;101078.63;5052228;28;19929;-81
2023/08/28 11:29:26;;;;;;;;;;;;;;;27.11;nan;101084.97;5059986;28;19920;-82
2023/08/28 11:31:52;;;;;;;;;;;;;;;27.10;nan;101081.38;5058551;28;19925;-82
2023/08/28 11:34:17;;;;;;;;;;;;;;;27.14;nan;101081.50;5061245;28;20548;-82
2023/08/28 11:36:43;;;;;;;;;;;;;;;27.21;nan;101084.44;5061815;28;19947;-81
2023/08/28 11:39:23;;;;;;;;;;;;;;;27.26;nan;101075.13;5055785;28;19927;-82
2023/08/28 11:41:49;;;;;;;;;;;;;;;27.24;nan;101077.44;5058029;28;19927;-82
2023/08/28 11:44:15;;;;;;;;;;;;;;;27.30;nan;101068.59;5055014;28;19925;-82
2023/08/28 11:46:40;;;;;;;;;;;;;;;27.44;nan;101083.84;5059428;28;19917;-83
2023/08/28 11:49:06;;;;;;;;;;;;;;;27.45;nan;101083.47;5056865;28;19999;-82
2023/08/28 11:51:31;;;;;;;;;;;;;;;27.51;nan;101079.34;5057997;28;19924;-83
2023/08/28 11:53:58;;;;;;;;;;;;;;;27.52;nan;101089.19;5058698;28;19971;-82
2023/08/28 11:56:23;;;;;;;;;;;;;;;27.50;nan;101090.69;5057489;28;19928;-82
2023/08/28 11:58:49;;;;;;;;;;;;;;;27.51;nan;101100.53;5053860;28;20317;-82
2023/08/28 12:01:15;;;;;;;;;;;;;;;27.53;nan;101106.50;5056568;28;19916;-82
2023/08/28 12:03:41;;;;;;;;;;;;;;;27.64;nan;101113.88;5056004;28;19921;-83
2023/08/28 12:06:07;;;;;;;;;;;;;;;27.59;nan;101107.81;5061648;28;19923;-82
2023/08/28 12:08:42;;;;;;;;;;;;;;;27.64;nan;101116.63;5058015;28;19921;-83
2023/08/28 12:11:09;;;;;;;;;;;;;;;27.63;nan;101111.47;5054725;28;19977;-82
2023/08/28 12:13:34;;;;;;;;;;;;;;;27.59;nan;101114.13;5049829;28;19956;-83
2023/08/28 12:16:06;;;;;;;;;;;;;;;27.61;nan;101108.25;5054007;28;20005;-82
2023/08/28 12:18:47;;;;;;;;;;;;;;;27.69;nan;101107.34;5059520;28;19928;-83
2023/08/28 12:21:14;;;;;;;;;;;;;;;27.80;nan;101108.38;5055008;28;20438;-82
2023/08/28 12:23:47;;;;;;;;;;;;;;;27.92;nan;101119.31;5059728;28;20358;-82
2023/08/28 12:26:12;;;;;;;;;;;;;;;27.82;nan;101116.28;5054992;28;19920;-82
2023/08/28 12:28:37;;;;;;;;;;;;;;;27.83;nan;101126.97;5055209;28;20355;-82
2023/08/28 12:31:03;;;;;;;;;;;;;;;27.80;nan;101115.84;5055102;28;19936;-82
2023/08/28 12:33:28;;;;;;;;;;;;;;;27.75;nan;101125.16;5057324;28;19916;-83
2023/08/28 12:35:54;;;;;;;;;;;;;;;27.76;nan;101121.25;5061577;28;19963;-83
2023/08/28 12:38:19;;;;;;;;;;;;;;;27.78;nan;101118.16;5055550;28;20030;-80
2023/08/28 12:40:49;;;;;;;;;;;;;;;27.68;nan;101114.00;5058189;28;19924;-81
2023/08/28 12:43:16;;;;;;;;;;;;;;;27.51;nan;101106.06;5055500;28;19923;-80
2023/08/28 12:45:42;;;;;;;;;;;;;;;27.51;nan;101103.31;5049147;28;19999;-81
2023/08/28 12:48:07;;;;;;;;;;;;;;;27.59;nan;101116.06;5054952;28;19924;-84
2023/08/28 12:50:33;;;;;;;;;;;;;;;27.62;nan;101115.38;5064256;28;19976;-83
2023/08/28 12:52:59;;;;;;;;;;;;;;;27.54;nan;101108.88;5061426;28;20000;-82